sensor_id;sensor_type;location;lat;lon;timestamp;P1;durP1;ratioP1;P2;durP2;ratioP2
84293;SDS011;74463;51.182;3.210;2024-01-06T00:01:02;5.85;;;1.50;;
84293;SDS011;74463;51.182;3.210;2024-01-06T00:03:29;5.85;;;1.92;;
84293;SDS011;74463;51.182;3.210;2024-01-06T00:05:58;15.43;;;2.45;;
84293;SDS011;74463;51.182;3.210;2024-01-06T00:08:25;2.88;;;1.67;;
84293;SDS011;74463;51.182;3.210;2024-01-06T00:10:52;4.45;;;1.60;;
84293;SDS011;74463;51.182;3.210;2024-01-06T00:13:20;6.40;;;1.85;;
84293;SDS011;74463;51.182;3.210;2024-01-06T00:15:47;6.85;;;1.70;;
84293;SDS011;74463;51.182;3.210;2024-01-06T00:18:14;7.72;;;1.75;;
84293;SDS011;74463;51.182;3.210;2024-01-06T00:20:41;2.13;;;1.23;;
84293;SDS011;74463;51.182;3.210;2024-01-06T00:23:09;7.03;;;1.98;;
84293;SDS011;74463;51.182;3.210;2024-01-06T00:25:36;3.53;;;1.30;;
84293;SDS011;74463;51.182;3.210;2024-01-06T00:28:03;6.13;;;1.52;;
84293;SDS011;74463;51.182;3.210;2024-01-06T00:30:31;5.60;;;1.50;;
84293;SDS011;74463;51.182;3.210;2024-01-06T00:32:57;6.07;;;1.38;;
84293;SDS011;74463;51.182;3.210;2024-01-06T00:35:24;3.17;;;1.10;;
84293;SDS011;74463;51.182;3.210;2024-01-06T00:37:51;6.43;;;1.67;;
84293;SDS011;74463;51.182;3.210;2024-01-06T00:40:22;3.20;;;1.40;;
84293;SDS011;74463;51.182;3.210;2024-01-06T00:42:48;9.40;;;1.83;;
84293;SDS011;74463;51.182;3.210;2024-01-06T00:45:15;6.70;;;1.90;;
84293;SDS011;74463;51.182;3.210;2024-01-06T00:47:43;8.05;;;1.90;;
84293;SDS011;74463;51.182;3.210;2024-01-06T00:50:10;4.60;;;1.38;;
84293;SDS011;74463;51.182;3.210;2024-01-06T00:52:38;8.63;;;1.75;;
84293;SDS011;74463;51.182;3.210;2024-01-06T00:55:05;6.60;;;2.78;;
84293;SDS011;74463;51.182;3.210;2024-01-06T00:57:33;6.70;;;1.77;;
84293;SDS011;74463;51.182;3.210;2024-01-06T01:00:00;5.10;;;1.40;;
84293;SDS011;74463;51.182;3.210;2024-01-06T01:02:27;5.13;;;2.00;;
84293;SDS011;74463;51.182;3.210;2024-01-06T01:04:54;6.32;;;2.10;;
84293;SDS011;74463;51.182;3.210;2024-01-06T01:07:22;5.97;;;1.90;;
84293;SDS011;74463;51.182;3.210;2024-01-06T01:09:49;11.15;;;2.47;;
84293;SDS011;74463;51.182;3.210;2024-01-06T01:12:16;6.72;;;1.80;;
84293;SDS011;74463;51.182;3.210;2024-01-06T01:14:45;12.93;;;2.75;;
84293;SDS011;74463;51.182;3.210;2024-01-06T01:17:12;6.22;;;2.08;;
84293;SDS011;74463;51.182;3.210;2024-01-06T01:19:39;4.82;;;1.60;;
84293;SDS011;74463;51.182;3.210;2024-01-06T01:22:06;6.05;;;1.63;;
84293;SDS011;74463;51.182;3.210;2024-01-06T01:24:33;6.75;;;1.63;;
84293;SDS011;74463;51.182;3.210;2024-01-06T01:27:00;4.53;;;1.95;;
84293;SDS011;74463;51.182;3.210;2024-01-06T01:29:27;5.07;;;1.80;;
84293;SDS011;74463;51.182;3.210;2024-01-06T01:31:55;7.38;;;1.85;;
84293;SDS011;74463;51.182;3.210;2024-01-06T01:34:22;7.30;;;1.60;;
84293;SDS011;74463;51.182;3.210;2024-01-06T01:36:49;4.35;;;1.63;;
84293;SDS011;74463;51.182;3.210;2024-01-06T01:39:16;2.17;;;1.40;;
84293;SDS011;74463;51.182;3.210;2024-01-06T01:41:43;8.43;;;1.80;;
84293;SDS011;74463;51.182;3.210;2024-01-06T01:44:10;7.50;;;1.90;;
84293;SDS011;74463;51.182;3.210;2024-01-06T01:46:38;2.83;;;1.25;;
84293;SDS011;74463;51.182;3.210;2024-01-06T01:49:06;10.95;;;1.80;;
84293;SDS011;74463;51.182;3.210;2024-01-06T01:51:33;4.32;;;1.83;;
84293;SDS011;74463;51.182;3.210;2024-01-06T01:54:02;7.82;;;2.15;;
84293;SDS011;74463;51.182;3.210;2024-01-06T01:56:30;6.45;;;1.80;;
84293;SDS011;74463;51.182;3.210;2024-01-06T01:58:59;3.17;;;1.50;;
84293;SDS011;74463;51.182;3.210;2024-01-06T02:01:29;5.18;;;1.27;;
84293;SDS011;74463;51.182;3.210;2024-01-06T02:03:56;4.55;;;1.25;;
84293;SDS011;74463;51.182;3.210;2024-01-06T02:06:25;5.15;;;1.75;;
84293;SDS011;74463;51.182;3.210;2024-01-06T02:08:52;14.32;;;2.13;;
84293;SDS011;74463;51.182;3.210;2024-01-06T02:11:20;4.30;;;1.42;;
84293;SDS011;74463;51.182;3.210;2024-01-06T02:13:45;2.28;;;1.40;;
84293;SDS011;74463;51.182;3.210;2024-01-06T02:16:12;5.60;;;1.80;;
84293;SDS011;74463;51.182;3.210;2024-01-06T02:18:39;10.30;;;1.73;;
84293;SDS011;74463;51.182;3.210;2024-01-06T02:21:06;5.28;;;1.52;;
84293;SDS011;74463;51.182;3.210;2024-01-06T02:23:36;7.57;;;2.40;;
84293;SDS011;74463;51.182;3.210;2024-01-06T02:26:03;6.22;;;2.00;;
84293;SDS011;74463;51.182;3.210;2024-01-06T02:28:30;8.60;;;2.33;;
84293;SDS011;74463;51.182;3.210;2024-01-06T02:30:57;10.25;;;2.33;;
84293;SDS011;74463;51.182;3.210;2024-01-06T02:33:24;8.20;;;2.20;;
84293;SDS011;74463;51.182;3.210;2024-01-06T02:35:51;6.50;;;1.98;;
84293;SDS011;74463;51.182;3.210;2024-01-06T02:38:18;8.35;;;1.48;;
84293;SDS011;74463;51.182;3.210;2024-01-06T02:40:46;5.10;;;2.35;;
84293;SDS011;74463;51.182;3.210;2024-01-06T02:43:13;7.60;;;2.13;;
84293;SDS011;74463;51.182;3.210;2024-01-06T02:45:40;4.05;;;1.38;;
84293;SDS011;74463;51.182;3.210;2024-01-06T02:48:07;6.90;;;1.67;;
84293;SDS011;74463;51.182;3.210;2024-01-06T02:50:34;5.45;;;1.75;;
84293;SDS011;74463;51.182;3.210;2024-01-06T02:53:00;5.13;;;1.33;;
84293;SDS011;74463;51.182;3.210;2024-01-06T02:55:27;5.07;;;1.73;;
84293;SDS011;74463;51.182;3.210;2024-01-06T02:57:56;1.88;;;1.00;;
84293;SDS011;74463;51.182;3.210;2024-01-06T03:00:23;4.90;;;1.80;;
84293;SDS011;74463;51.182;3.210;2024-01-06T03:02:50;5.05;;;0.95;;
84293;SDS011;74463;51.182;3.210;2024-01-06T03:05:17;8.40;;;1.50;;
84293;SDS011;74463;51.182;3.210;2024-01-06T03:07:44;3.45;;;1.20;;
84293;SDS011;74463;51.182;3.210;2024-01-06T03:10:11;5.43;;;1.02;;
84293;SDS011;74463;51.182;3.210;2024-01-06T03:12:38;4.13;;;1.52;;
84293;SDS011;74463;51.182;3.210;2024-01-06T03:15:07;5.55;;;1.25;;
84293;SDS011;74463;51.182;3.210;2024-01-06T03:17:35;5.40;;;1.48;;
84293;SDS011;74463;51.182;3.210;2024-01-06T03:20:02;1.80;;;0.95;;
84293;SDS011;74463;51.182;3.210;2024-01-06T03:22:30;8.00;;;1.02;;
84293;SDS011;74463;51.182;3.210;2024-01-06T03:24:57;3.13;;;1.65;;
84293;SDS011;74463;51.182;3.210;2024-01-06T03:27:24;3.85;;;1.30;;
84293;SDS011;74463;51.182;3.210;2024-01-06T03:29:51;3.92;;;1.20;;
84293;SDS011;74463;51.182;3.210;2024-01-06T03:32:19;1.92;;;1.17;;
84293;SDS011;74463;51.182;3.210;2024-01-06T03:34:46;2.97;;;1.05;;
84293;SDS011;74463;51.182;3.210;2024-01-06T03:37:13;3.95;;;1.60;;
84293;SDS011;74463;51.182;3.210;2024-01-06T03:39:40;0.88;;;0.82;;
84293;SDS011;74463;51.182;3.210;2024-01-06T03:42:07;5.22;;;1.33;;
84293;SDS011;74463;51.182;3.210;2024-01-06T03:44:34;4.18;;;1.83;;
84293;SDS011;74463;51.182;3.210;2024-01-06T03:47:01;3.97;;;1.27;;
84293;SDS011;74463;51.182;3.210;2024-01-06T03:49:29;3.75;;;1.27;;
84293;SDS011;74463;51.182;3.210;2024-01-06T03:51:56;3.60;;;1.43;;
84293;SDS011;74463;51.182;3.210;2024-01-06T03:54:23;3.47;;;1.05;;
84293;SDS011;74463;51.182;3.210;2024-01-06T03:56:50;3.83;;;1.63;;
84293;SDS011;74463;51.182;3.210;2024-01-06T03:59:17;10.77;;;1.60;;
84293;SDS011;74463;51.182;3.210;2024-01-06T04:01:44;3.55;;;1.25;;
84293;SDS011;74463;51.182;3.210;2024-01-06T04:04:11;4.20;;;1.40;;
84293;SDS011;74463;51.182;3.210;2024-01-06T04:06:39;8.90;;;2.20;;
84293;SDS011;74463;51.182;3.210;2024-01-06T04:09:06;2.53;;;1.30;;
84293;SDS011;74463;51.182;3.210;2024-01-06T04:11:34;4.80;;;1.50;;
84293;SDS011;74463;51.182;3.210;2024-01-06T04:14:01;7.05;;;1.48;;
84293;SDS011;74463;51.182;3.210;2024-01-06T04:16:28;6.20;;;1.35;;
84293;SDS011;74463;51.182;3.210;2024-01-06T04:18:55;3.05;;;1.13;;
84293;SDS011;74463;51.182;3.210;2024-01-06T04:21:22;3.85;;;1.27;;
84293;SDS011;74463;51.182;3.210;2024-01-06T04:23:50;4.97;;;1.45;;
84293;SDS011;74463;51.182;3.210;2024-01-06T04:26:17;3.30;;;1.00;;
84293;SDS011;74463;51.182;3.210;2024-01-06T04:28:44;1.58;;;1.10;;
84293;SDS011;74463;51.182;3.210;2024-01-06T04:31:11;2.15;;;0.98;;
84293;SDS011;74463;51.182;3.210;2024-01-06T04:33:38;6.18;;;1.42;;
84293;SDS011;74463;51.182;3.210;2024-01-06T04:36:06;6.00;;;1.17;;
84293;SDS011;74463;51.182;3.210;2024-01-06T04:38:33;4.97;;;1.17;;
84293;SDS011;74463;51.182;3.210;2024-01-06T04:41:01;3.85;;;1.30;;
84293;SDS011;74463;51.182;3.210;2024-01-06T04:43:28;6.85;;;1.65;;
84293;SDS011;74463;51.182;3.210;2024-01-06T04:45:55;3.15;;;1.35;;
84293;SDS011;74463;51.182;3.210;2024-01-06T04:48:23;3.47;;;1.50;;
84293;SDS011;74463;51.182;3.210;2024-01-06T04:50:50;5.30;;;1.05;;
84293;SDS011;74463;51.182;3.210;2024-01-06T04:53:17;4.55;;;1.17;;
84293;SDS011;74463;51.182;3.210;2024-01-06T04:55:44;6.07;;;1.35;;
84293;SDS011;74463;51.182;3.210;2024-01-06T04:58:13;5.88;;;1.58;;
84293;SDS011;74463;51.182;3.210;2024-01-06T05:00:40;3.38;;;1.83;;
84293;SDS011;74463;51.182;3.210;2024-01-06T05:03:07;4.55;;;1.40;;
84293;SDS011;74463;51.182;3.210;2024-01-06T05:05:34;5.90;;;1.60;;
84293;SDS011;74463;51.182;3.210;2024-01-06T05:08:01;9.70;;;2.55;;
84293;SDS011;74463;51.182;3.210;2024-01-06T05:10:28;3.75;;;1.55;;
84293;SDS011;74463;51.182;3.210;2024-01-06T05:12:55;3.28;;;1.60;;
84293;SDS011;74463;51.182;3.210;2024-01-06T05:15:23;6.38;;;1.75;;
84293;SDS011;74463;51.182;3.210;2024-01-06T05:17:50;7.78;;;1.70;;
84293;SDS011;74463;51.182;3.210;2024-01-06T05:20:17;5.70;;;1.70;;
84293;SDS011;74463;51.182;3.210;2024-01-06T05:22:44;9.15;;;1.70;;
84293;SDS011;74463;51.182;3.210;2024-01-06T05:25:11;5.20;;;1.48;;
84293;SDS011;74463;51.182;3.210;2024-01-06T05:27:38;5.22;;;1.55;;
84293;SDS011;74463;51.182;3.210;2024-01-06T05:30:05;3.08;;;1.33;;
84293;SDS011;74463;51.182;3.210;2024-01-06T05:32:35;6.07;;;1.42;;
84293;SDS011;74463;51.182;3.210;2024-01-06T05:35:03;6.53;;;1.80;;
84293;SDS011;74463;51.182;3.210;2024-01-06T05:37:31;6.75;;;1.70;;
84293;SDS011;74463;51.182;3.210;2024-01-06T05:39:58;4.85;;;1.50;;
84293;SDS011;74463;51.182;3.210;2024-01-06T05:42:27;8.40;;;1.58;;
84293;SDS011;74463;51.182;3.210;2024-01-06T05:44:54;3.38;;;1.55;;
84293;SDS011;74463;51.182;3.210;2024-01-06T05:47:21;2.67;;;1.38;;
84293;SDS011;74463;51.182;3.210;2024-01-06T05:49:49;2.97;;;1.60;;
84293;SDS011;74463;51.182;3.210;2024-01-06T05:52:16;5.38;;;1.80;;
84293;SDS011;74463;51.182;3.210;2024-01-06T05:54:43;5.22;;;1.90;;
84293;SDS011;74463;51.182;3.210;2024-01-06T05:57:10;4.50;;;1.63;;
84293;SDS011;74463;51.182;3.210;2024-01-06T05:59:37;5.15;;;1.77;;
84293;SDS011;74463;51.182;3.210;2024-01-06T06:02:05;3.05;;;1.33;;
84293;SDS011;74463;51.182;3.210;2024-01-06T06:04:32;5.03;;;1.40;;
84293;SDS011;74463;51.182;3.210;2024-01-06T06:07:00;6.85;;;1.85;;
84293;SDS011;74463;51.182;3.210;2024-01-06T06:09:28;5.28;;;1.67;;
84293;SDS011;74463;51.182;3.210;2024-01-06T06:11:55;4.88;;;1.48;;
84293;SDS011;74463;51.182;3.210;2024-01-06T06:14:22;2.30;;;1.35;;
84293;SDS011;74463;51.182;3.210;2024-01-06T06:16:49;3.70;;;1.80;;
84293;SDS011;74463;51.182;3.210;2024-01-06T06:19:16;3.00;;;1.60;;
84293;SDS011;74463;51.182;3.210;2024-01-06T06:21:43;3.15;;;1.65;;
84293;SDS011;74463;51.182;3.210;2024-01-06T06:24:12;4.15;;;1.63;;
84293;SDS011;74463;51.182;3.210;2024-01-06T06:26:39;8.70;;;1.95;;
84293;SDS011;74463;51.182;3.210;2024-01-06T06:29:06;4.20;;;1.73;;
84293;SDS011;74463;51.182;3.210;2024-01-06T06:31:33;7.35;;;2.10;;
84293;SDS011;74463;51.182;3.210;2024-01-06T06:34:00;6.03;;;1.70;;
84293;SDS011;74463;51.182;3.210;2024-01-06T06:36:27;7.75;;;1.90;;
84293;SDS011;74463;51.182;3.210;2024-01-06T06:38:54;4.43;;;1.80;;
84293;SDS011;74463;51.182;3.210;2024-01-06T06:41:24;1.52;;;1.42;;
84293;SDS011;74463;51.182;3.210;2024-01-06T06:43:51;3.20;;;1.90;;
84293;SDS011;74463;51.182;3.210;2024-01-06T06:46:18;7.07;;;1.92;;
84293;SDS011;74463;51.182;3.210;2024-01-06T06:48:45;7.72;;;2.25;;
84293;SDS011;74463;51.182;3.210;2024-01-06T06:51:12;3.42;;;1.83;;
84293;SDS011;74463;51.182;3.210;2024-01-06T06:53:39;9.35;;;2.30;;
84293;SDS011;74463;51.182;3.210;2024-01-06T06:56:06;2.45;;;1.88;;
84293;SDS011;74463;51.182;3.210;2024-01-06T06:58:34;7.55;;;2.47;;
84293;SDS011;74463;51.182;3.210;2024-01-06T07:01:01;6.20;;;2.30;;
84293;SDS011;74463;51.182;3.210;2024-01-06T07:03:28;6.22;;;2.33;;
84293;SDS011;74463;51.182;3.210;2024-01-06T07:05:55;6.97;;;2.28;;
84293;SDS011;74463;51.182;3.210;2024-01-06T07:08:22;4.28;;;2.10;;
84293;SDS011;74463;51.182;3.210;2024-01-06T07:10:49;6.18;;;2.10;;
84293;SDS011;74463;51.182;3.210;2024-01-06T07:13:16;8.25;;;2.15;;
84293;SDS011;74463;51.182;3.210;2024-01-06T07:15:44;7.63;;;2.20;;
84293;SDS011;74463;51.182;3.210;2024-01-06T07:18:11;7.15;;;2.55;;
84293;SDS011;74463;51.182;3.210;2024-01-06T07:20:38;8.82;;;3.15;;
84293;SDS011;74463;51.182;3.210;2024-01-06T07:23:05;8.18;;;2.60;;
84293;SDS011;74463;51.182;3.210;2024-01-06T07:25:32;5.82;;;1.88;;
84293;SDS011;74463;51.182;3.210;2024-01-06T07:27:59;5.90;;;2.22;;
84293;SDS011;74463;51.182;3.210;2024-01-06T07:30:26;6.13;;;2.15;;
84293;SDS011;74463;51.182;3.210;2024-01-06T07:32:54;5.13;;;2.28;;
84293;SDS011;74463;51.182;3.210;2024-01-06T07:35:21;8.07;;;2.65;;
84293;SDS011;74463;51.182;3.210;2024-01-06T07:37:48;6.43;;;2.42;;
84293;SDS011;74463;51.182;3.210;2024-01-06T07:40:15;8.63;;;2.33;;
84293;SDS011;74463;51.182;3.210;2024-01-06T07:42:42;5.13;;;2.30;;
84293;SDS011;74463;51.182;3.210;2024-01-06T07:45:09;6.53;;;2.35;;
84293;SDS011;74463;51.182;3.210;2024-01-06T07:47:38;5.28;;;1.98;;
84293;SDS011;74463;51.182;3.210;2024-01-06T07:50:07;4.95;;;2.13;;
84293;SDS011;74463;51.182;3.210;2024-01-06T07:52:35;5.60;;;2.28;;
84293;SDS011;74463;51.182;3.210;2024-01-06T07:55:02;6.35;;;2.00;;
84293;SDS011;74463;51.182;3.210;2024-01-06T07:57:29;4.20;;;1.88;;
84293;SDS011;74463;51.182;3.210;2024-01-06T07:59:56;5.80;;;2.10;;
84293;SDS011;74463;51.182;3.210;2024-01-06T08:02:23;4.90;;;1.88;;
84293;SDS011;74463;51.182;3.210;2024-01-06T08:04:50;5.25;;;2.20;;
84293;SDS011;74463;51.182;3.210;2024-01-06T08:07:19;5.75;;;2.40;;
84293;SDS011;74463;51.182;3.210;2024-01-06T08:09:46;7.03;;;2.08;;
84293;SDS011;74463;51.182;3.210;2024-01-06T08:12:13;3.50;;;1.70;;
84293;SDS011;74463;51.182;3.210;2024-01-06T08:14:41;4.85;;;2.35;;
84293;SDS011;74463;51.182;3.210;2024-01-06T08:17:08;7.63;;;3.05;;
84293;SDS011;74463;51.182;3.210;2024-01-06T08:19:35;8.02;;;2.47;;
84293;SDS011;74463;51.182;3.210;2024-01-06T08:22:02;3.70;;;2.05;;
84293;SDS011;74463;51.182;3.210;2024-01-06T08:24:30;9.65;;;2.20;;
84293;SDS011;74463;51.182;3.210;2024-01-06T08:26:57;4.93;;;1.85;;
84293;SDS011;74463;51.182;3.210;2024-01-06T08:29:24;8.20;;;2.15;;
84293;SDS011;74463;51.182;3.210;2024-01-06T08:31:51;4.15;;;1.80;;
84293;SDS011;74463;51.182;3.210;2024-01-06T08:34:19;5.87;;;2.17;;
84293;SDS011;74463;51.182;3.210;2024-01-06T08:36:46;5.07;;;2.10;;
84293;SDS011;74463;51.182;3.210;2024-01-06T08:39:13;3.47;;;1.63;;
84293;SDS011;74463;51.182;3.210;2024-01-06T08:41:42;4.35;;;2.08;;
84293;SDS011;74463;51.182;3.210;2024-01-06T08:44:09;3.78;;;1.85;;
84293;SDS011;74463;51.182;3.210;2024-01-06T08:46:36;2.95;;;1.50;;
84293;SDS011;74463;51.182;3.210;2024-01-06T08:49:03;2.33;;;1.50;;
84293;SDS011;74463;51.182;3.210;2024-01-06T08:51:30;4.88;;;1.60;;
84293;SDS011;74463;51.182;3.210;2024-01-06T08:53:57;9.27;;;1.92;;
84293;SDS011;74463;51.182;3.210;2024-01-06T08:56:24;2.63;;;1.35;;
84293;SDS011;74463;51.182;3.210;2024-01-06T08:58:53;5.28;;;1.80;;
84293;SDS011;74463;51.182;3.210;2024-01-06T09:01:20;4.88;;;1.55;;
84293;SDS011;74463;51.182;3.210;2024-01-06T09:03:47;3.75;;;2.03;;
84293;SDS011;74463;51.182;3.210;2024-01-06T09:06:15;1.92;;;1.30;;
84293;SDS011;74463;51.182;3.210;2024-01-06T09:08:42;2.88;;;1.58;;
84293;SDS011;74463;51.182;3.210;2024-01-06T09:11:09;3.28;;;2.35;;
84293;SDS011;74463;51.182;3.210;2024-01-06T09:13:36;3.75;;;1.80;;
84293;SDS011;74463;51.182;3.210;2024-01-06T09:16:04;3.97;;;1.30;;
84293;SDS011;74463;51.182;3.210;2024-01-06T09:18:31;3.17;;;1.55;;
84293;SDS011;74463;51.182;3.210;2024-01-06T09:20:58;6.75;;;1.75;;
84293;SDS011;74463;51.182;3.210;2024-01-06T09:23:25;2.28;;;1.42;;
84293;SDS011;74463;51.182;3.210;2024-01-06T09:25:52;2.83;;;1.38;;
84293;SDS011;74463;51.182;3.210;2024-01-06T09:28:19;5.82;;;1.70;;
84293;SDS011;74463;51.182;3.210;2024-01-06T09:30:47;2.40;;;1.50;;
84293;SDS011;74463;51.182;3.210;2024-01-06T09:33:15;6.80;;;1.70;;
84293;SDS011;74463;51.182;3.210;2024-01-06T09:35:42;1.45;;;1.15;;
84293;SDS011;74463;51.182;3.210;2024-01-06T09:38:10;3.45;;;1.65;;
84293;SDS011;74463;51.182;3.210;2024-01-06T09:40:40;3.53;;;1.65;;
84293;SDS011;74463;51.182;3.210;2024-01-06T09:43:08;2.95;;;1.70;;
84293;SDS011;74463;51.182;3.210;2024-01-06T09:45:36;2.58;;;1.67;;
84293;SDS011;74463;51.182;3.210;2024-01-06T09:48:06;4.60;;;1.63;;
84293;SDS011;74463;51.182;3.210;2024-01-06T09:50:39;3.45;;;1.55;;
84293;SDS011;74463;51.182;3.210;2024-01-06T09:53:08;3.92;;;1.85;;
84293;SDS011;74463;51.182;3.210;2024-01-06T09:55:37;4.05;;;2.10;;
84293;SDS011;74463;51.182;3.210;2024-01-06T09:58:04;3.45;;;1.60;;
84293;SDS011;74463;51.182;3.210;2024-01-06T10:00:32;7.78;;;2.10;;
84293;SDS011;74463;51.182;3.210;2024-01-06T10:02:59;8.25;;;2.38;;
84293;SDS011;74463;51.182;3.210;2024-01-06T10:05:26;4.55;;;2.38;;
84293;SDS011;74463;51.182;3.210;2024-01-06T10:07:54;7.70;;;3.25;;
84293;SDS011;74463;51.182;3.210;2024-01-06T10:10:22;7.82;;;2.58;;
84293;SDS011;74463;51.182;3.210;2024-01-06T10:12:50;10.25;;;3.00;;
84293;SDS011;74463;51.182;3.210;2024-01-06T10:15:20;5.35;;;2.13;;
84293;SDS011;74463;51.182;3.210;2024-01-06T10:17:47;6.60;;;2.28;;
84293;SDS011;74463;51.182;3.210;2024-01-06T10:20:15;7.57;;;2.80;;
84293;SDS011;74463;51.182;3.210;2024-01-06T10:22:43;8.20;;;2.77;;
84293;SDS011;74463;51.182;3.210;2024-01-06T10:25:11;5.20;;;2.60;;
84293;SDS011;74463;51.182;3.210;2024-01-06T10:27:39;8.98;;;3.17;;
84293;SDS011;74463;51.182;3.210;2024-01-06T10:30:07;10.30;;;3.10;;
84293;SDS011;74463;51.182;3.210;2024-01-06T10:32:35;8.43;;;2.85;;
84293;SDS011;74463;51.182;3.210;2024-01-06T10:35:02;9.45;;;3.08;;
84293;SDS011;74463;51.182;3.210;2024-01-06T10:37:31;6.97;;;3.40;;
84293;SDS011;74463;51.182;3.210;2024-01-06T10:40:06;7.32;;;3.20;;
84293;SDS011;74463;51.182;3.210;2024-01-06T10:42:36;8.90;;;3.90;;
84293;SDS011;74463;51.182;3.210;2024-01-06T10:45:05;8.50;;;2.90;;
84293;SDS011;74463;51.182;3.210;2024-01-06T10:47:34;6.25;;;3.13;;
84293;SDS011;74463;51.182;3.210;2024-01-06T10:50:01;7.55;;;2.92;;
84293;SDS011;74463;51.182;3.210;2024-01-06T10:52:29;12.27;;;3.17;;
84293;SDS011;74463;51.182;3.210;2024-01-06T10:54:57;8.00;;;2.80;;
84293;SDS011;74463;51.182;3.210;2024-01-06T10:57:24;8.93;;;2.53;;
84293;SDS011;74463;51.182;3.210;2024-01-06T10:59:54;5.63;;;2.90;;
84293;SDS011;74463;51.182;3.210;2024-01-06T11:02:23;9.07;;;3.20;;
84293;SDS011;74463;51.182;3.210;2024-01-06T11:04:51;5.80;;;2.65;;
84293;SDS011;74463;51.182;3.210;2024-01-06T11:07:19;9.20;;;3.08;;
84293;SDS011;74463;51.182;3.210;2024-01-06T11:09:48;5.97;;;3.15;;
84293;SDS011;74463;51.182;3.210;2024-01-06T11:12:23;7.57;;;3.20;;
84293;SDS011;74463;51.182;3.210;2024-01-06T11:14:51;7.65;;;2.70;;
84293;SDS011;74463;51.182;3.210;2024-01-06T11:20:20;10.00;;;3.47;;
84293;SDS011;74463;51.182;3.210;2024-01-06T11:22:48;8.77;;;3.30;;
84293;SDS011;74463;51.182;3.210;2024-01-06T11:25:16;5.72;;;2.83;;
84293;SDS011;74463;51.182;3.210;2024-01-06T11:27:44;10.45;;;3.13;;
84293;SDS011;74463;51.182;3.210;2024-01-06T11:30:19;8.20;;;2.75;;
84293;SDS011;74463;51.182;3.210;2024-01-06T11:32:47;6.20;;;2.80;;
84293;SDS011;74463;51.182;3.210;2024-01-06T11:35:15;8.23;;;3.20;;
84293;SDS011;74463;51.182;3.210;2024-01-06T11:37:53;9.10;;;3.45;;
84293;SDS011;74463;51.182;3.210;2024-01-06T11:40:23;6.07;;;2.80;;
84293;SDS011;74463;51.182;3.210;2024-01-06T11:42:57;9.10;;;3.03;;
84293;SDS011;74463;51.182;3.210;2024-01-06T11:45:26;5.88;;;2.78;;
84293;SDS011;74463;51.182;3.210;2024-01-06T11:47:54;9.68;;;3.05;;
84293;SDS011;74463;51.182;3.210;2024-01-06T11:50:23;8.15;;;3.08;;
84293;SDS011;74463;51.182;3.210;2024-01-06T11:52:51;7.93;;;2.90;;
84293;SDS011;74463;51.182;3.210;2024-01-06T11:55:18;7.10;;;2.92;;
84293;SDS011;74463;51.182;3.210;2024-01-06T11:57:46;9.77;;;2.65;;
84293;SDS011;74463;51.182;3.210;2024-01-06T12:00:14;7.00;;;2.70;;
84293;SDS011;74463;51.182;3.210;2024-01-06T12:02:42;6.22;;;2.55;;
84293;SDS011;74463;51.182;3.210;2024-01-06T12:05:12;6.30;;;2.67;;
84293;SDS011;74463;51.182;3.210;2024-01-06T12:07:52;5.88;;;2.70;;
84293;SDS011;74463;51.182;3.210;2024-01-06T12:10:20;5.35;;;2.60;;
84293;SDS011;74463;51.182;3.210;2024-01-06T12:12:54;4.50;;;2.17;;
84293;SDS011;74463;51.182;3.210;2024-01-06T12:15:25;5.07;;;2.60;;
84293;SDS011;74463;51.182;3.210;2024-01-06T12:17:53;6.25;;;2.25;;
84293;SDS011;74463;51.182;3.210;2024-01-06T12:20:21;6.43;;;2.63;;
84293;SDS011;74463;51.182;3.210;2024-01-06T12:22:50;3.55;;;2.28;;
84293;SDS011;74463;51.182;3.210;2024-01-06T12:25:18;4.20;;;2.38;;
84293;SDS011;74463;51.182;3.210;2024-01-06T12:27:47;6.30;;;2.50;;
84293;SDS011;74463;51.182;3.210;2024-01-06T12:30:15;5.78;;;2.45;;
84293;SDS011;74463;51.182;3.210;2024-01-06T12:32:44;5.15;;;2.30;;
84293;SDS011;74463;51.182;3.210;2024-01-06T12:37:39;3.78;;;2.20;;
84293;SDS011;74463;51.182;3.210;2024-01-06T12:40:10;6.03;;;2.28;;
84293;SDS011;74463;51.182;3.210;2024-01-06T12:42:38;7.88;;;2.70;;
84293;SDS011;74463;51.182;3.210;2024-01-06T12:45:05;6.97;;;2.70;;
84293;SDS011;74463;51.182;3.210;2024-01-06T12:47:33;5.93;;;2.53;;
84293;SDS011;74463;51.182;3.210;2024-01-06T12:50:00;7.13;;;2.80;;
84293;SDS011;74463;51.182;3.210;2024-01-06T12:52:29;4.20;;;2.75;;
84293;SDS011;74463;51.182;3.210;2024-01-06T12:54:56;7.63;;;2.75;;
84293;SDS011;74463;51.182;3.210;2024-01-06T12:57:24;8.57;;;3.20;;
84293;SDS011;74463;51.182;3.210;2024-01-06T12:59:51;8.00;;;2.97;;
84293;SDS011;74463;51.182;3.210;2024-01-06T13:02:19;9.02;;;3.45;;
84293;SDS011;74463;51.182;3.210;2024-01-06T13:04:47;7.30;;;2.90;;
84293;SDS011;74463;51.182;3.210;2024-01-06T13:07:14;4.70;;;2.47;;
84293;SDS011;74463;51.182;3.210;2024-01-06T13:09:41;5.60;;;2.47;;
84293;SDS011;74463;51.182;3.210;2024-01-06T13:12:08;5.45;;;2.75;;
84293;SDS011;74463;51.182;3.210;2024-01-06T13:14:36;6.45;;;2.55;;
84293;SDS011;74463;51.182;3.210;2024-01-06T13:17:03;6.43;;;2.67;;
84293;SDS011;74463;51.182;3.210;2024-01-06T13:19:30;7.47;;;3.47;;
84293;SDS011;74463;51.182;3.210;2024-01-06T13:21:58;5.90;;;3.40;;
84293;SDS011;74463;51.182;3.210;2024-01-06T13:24:25;6.72;;;2.90;;
84293;SDS011;74463;51.182;3.210;2024-01-06T13:26:52;8.77;;;2.83;;
84293;SDS011;74463;51.182;3.210;2024-01-06T13:29:19;4.90;;;3.13;;
84293;SDS011;74463;51.182;3.210;2024-01-06T13:31:47;7.07;;;2.80;;
84293;SDS011;74463;51.182;3.210;2024-01-06T13:34:14;8.20;;;2.97;;
84293;SDS011;74463;51.182;3.210;2024-01-06T13:36:41;6.05;;;3.00;;
84293;SDS011;74463;51.182;3.210;2024-01-06T13:39:08;5.60;;;2.70;;
84293;SDS011;74463;51.182;3.210;2024-01-06T13:41:42;6.72;;;2.95;;
84293;SDS011;74463;51.182;3.210;2024-01-06T13:44:09;6.43;;;2.53;;
84293;SDS011;74463;51.182;3.210;2024-01-06T13:46:36;5.60;;;2.67;;
84293;SDS011;74463;51.182;3.210;2024-01-06T13:49:04;6.50;;;2.80;;
84293;SDS011;74463;51.182;3.210;2024-01-06T13:51:31;11.52;;;2.70;;
84293;SDS011;74463;51.182;3.210;2024-01-06T13:53:58;7.93;;;2.60;;
84293;SDS011;74463;51.182;3.210;2024-01-06T13:56:25;6.95;;;2.63;;
84293;SDS011;74463;51.182;3.210;2024-01-06T13:58:52;5.43;;;2.90;;
84293;SDS011;74463;51.182;3.210;2024-01-06T14:01:19;5.80;;;3.00;;
84293;SDS011;74463;51.182;3.210;2024-01-06T14:06:17;11.68;;;3.22;;
84293;SDS011;74463;51.182;3.210;2024-01-06T14:08:45;5.47;;;2.70;;
84293;SDS011;74463;51.182;3.210;2024-01-06T14:11:12;8.48;;;2.88;;
84293;SDS011;74463;51.182;3.210;2024-01-06T14:13:39;6.10;;;2.63;;
84293;SDS011;74463;51.182;3.210;2024-01-06T14:16:06;10.07;;;3.38;;
84293;SDS011;74463;51.182;3.210;2024-01-06T14:18:34;5.45;;;3.00;;
84293;SDS011;74463;51.182;3.210;2024-01-06T14:21:01;6.55;;;3.13;;
84293;SDS011;74463;51.182;3.210;2024-01-06T14:23:29;4.28;;;2.35;;
84293;SDS011;74463;51.182;3.210;2024-01-06T14:25:57;5.13;;;2.55;;
84293;SDS011;74463;51.182;3.210;2024-01-06T14:28:25;5.78;;;2.47;;
84293;SDS011;74463;51.182;3.210;2024-01-06T14:30:52;4.22;;;2.30;;
84293;SDS011;74463;51.182;3.210;2024-01-06T14:33:18;4.13;;;2.20;;
84293;SDS011;74463;51.182;3.210;2024-01-06T14:35:45;4.15;;;2.10;;
84293;SDS011;74463;51.182;3.210;2024-01-06T14:38:12;6.55;;;2.45;;
84293;SDS011;74463;51.182;3.210;2024-01-06T14:40:41;5.65;;;2.08;;
84293;SDS011;74463;51.182;3.210;2024-01-06T14:43:08;4.53;;;2.10;;
84293;SDS011;74463;51.182;3.210;2024-01-06T14:45:35;4.40;;;2.10;;
84293;SDS011;74463;51.182;3.210;2024-01-06T14:48:03;4.30;;;1.88;;
84293;SDS011;74463;51.182;3.210;2024-01-06T14:50:31;2.65;;;2.00;;
84293;SDS011;74463;51.182;3.210;2024-01-06T14:52:58;4.25;;;2.30;;
84293;SDS011;74463;51.182;3.210;2024-01-06T14:55:24;5.68;;;1.95;;
84293;SDS011;74463;51.182;3.210;2024-01-06T14:57:53;4.13;;;2.05;;